Aérodrome :
LOGIN :

S'inscrire | Disclaimer

   EN    FR    IT 

 










Légende :    VFR   VFR Marginal   IFR   IFR Intensif   IFR Très Intensif
Visi : 
Plafond : 
>= 8 km
>= 3000ft
5 à 8 km
1000 à 3000 ft
1500m à 5 km
500 à 1000 ft
800 à 1500m
200 à 500 ft
< 800m
< 200 ft
Symboles :   Orages  Brouillard  Fortes neiges  Fortes précipitations  Vent > 20 kt
SIGMETs :   Divers  Orages  Givrage  Turbulence  Onde Orograph.  Cendres Volcan.







- Altitude de l'aérodrome : 28 ft
- Code IATA : SOZ
- Voir les cartes d'approche


LFKS - Solenzara

DERNIER METAR :
  • 121800Z AUTO 28003KT 9999 BKN064 OVC086 12/06 Q1014

METARs EXPIRÉS :
  • 121730Z AUTO 35006KT 310V020 9999 FEW068 BKN078 OVC096 12/07 Q1014
  • 121700Z AUTO VRB02KT 9999 BKN076 OVC090 13/06 Q1013
  • 121630Z AUTO VRB02KT 9999 BKN080 OVC100 13/05 Q1013
  • 121600Z AUTO 02002KT 9999 BKN074 OVC084 12/06 Q1012
  • 121530Z AUTO VRB01KT 9999 FEW068 BKN078 BKN094 13/05 Q1012

TAF AMD TAF LFKS
Valide du 12 à 15h jusqu'au 13 à 15h UTC


121400Z 1215/1315 23006KT 9999 OVC075
TEMPO 1215/1218 01010KT
TEMPO 1220/1303 27015G25KT RA
Pas de NOTAMs connus pour ce terrain.



MET'MAP, la Météo Aéronautique d'un coup d'oeil ! - Copyright ORBIFLY Décembre 2007 - Disclaimer

ORBIFLY MET'MAP TEAM :

Programmation & Développement : Alexandra Zaïnal
Conception & Développement : Baudouin d'Aumeries
Co-Programmation & Développement : Marc-Olivier Méhu
Soutien technique & logistique : Manuel Goepfert

Contact : metmap@orbifly.com




SOURCES & CREDITS :

   NOAA